Time;durP1;ratioP1;P1;durP2;ratioP2;P2;SDS_P1;SDS_P2;PMS_P1;PMS_P2;Temp;Humidity;BMP_temperature;BMP_pressure;BME280_temperature;BME280_humidity;BME280_pressure;Samples;Min_cycle;Max_cycle;Signal;HPM_P1;HPM_P2
2024/01/15 00:00:44;;;;;;;50.55;19.55;;;-0.40;68.00;;;;;;4964754;28;20541;-62
2024/01/15 00:03:10;;;;;;;54.50;20.55;;;-0.20;68.20;;;;;;4966497;28;20113;-63
2024/01/15 00:05:36;;;;;;;44.00;18.05;;;-0.40;68.20;;;;;;4946570;28;20035;-62
2024/01/15 00:08:02;;;;;;;47.72;18.95;;;-0.40;68.10;;;;;;4969571;28;20113;-61
2024/01/15 00:10:28;;;;;;;46.20;19.33;;;-0.30;67.90;;;;;;4966377;28;20093;-62
2024/01/15 00:12:54;;;;;;;43.50;17.23;;;-0.30;67.90;;;;;;4962980;28;20030;-62
2024/01/15 00:15:20;;;;;;;45.80;18.05;;;-0.30;68.00;;;;;;4946714;28;20030;-61
2024/01/15 00:17:46;;;;;;;48.78;19.88;;;-0.10;67.90;;;;;;4968986;28;20346;-61
2024/01/15 00:20:12;;;;;;;43.90;18.27;;;-0.20;67.80;;;;;;4963024;28;20066;-61
2024/01/15 00:22:38;;;;;;;51.08;18.65;;;-0.20;67.80;;;;;;4965455;28;20062;-62
2024/01/15 00:25:05;;;;;;;50.65;20.33;;;-0.20;67.70;;;;;;4970344;28;20110;-62
2024/01/15 00:27:32;;;;;;;48.28;18.85;;;-0.20;67.50;;;;;;4969505;28;20088;-62
2024/01/15 00:29:58;;;;;;;47.03;19.63;;;-0.10;67.70;;;;;;4951590;28;20462;-62
2024/01/15 00:32:24;;;;;;;43.65;18.38;;;-0.10;67.60;;;;;;4968046;28;20117;-61
2024/01/15 00:34:50;;;;;;;47.70;18.83;;;-0.10;67.60;;;;;;4966334;28;20033;-62
2024/01/15 00:37:16;;;;;;;50.17;18.83;;;0.00;67.70;;;;;;4969750;28;20447;-61
2024/01/15 00:39:42;;;;;;;42.55;17.45;;;0.10;67.60;;;;;;4954173;28;20031;-62
2024/01/15 00:42:08;;;;;;;44.95;18.60;;;0.00;67.50;;;;;;4962798;28;20456;-62
2024/01/15 00:44:34;;;;;;;44.03;18.20;;;0.00;67.50;;;;;;4944567;28;20035;-61
2024/01/15 00:47:01;;;;;;;50.25;19.02;;;0.00;67.50;;;;;;4903778;28;20039;-61
2024/01/15 00:49:28;;;;;;;45.47;18.60;;;0.20;67.80;;;;;;4948816;28;20035;-61
2024/01/15 00:51:54;;;;;;;41.50;18.85;;;0.10;67.60;;;;;;4946423;28;20508;-61
2024/01/15 00:54:20;;;;;;;41.60;16.67;;;0.20;67.70;;;;;;4971814;28;20031;-61
2024/01/15 00:56:46;;;;;;;39.97;16.42;;;0.20;67.50;;;;;;4966536;28;20035;-62
2024/01/15 00:59:14;;;;;;;45.47;18.73;;;0.20;67.40;;;;;;4951817;28;20027;-61
2024/01/15 01:01:42;;;;;;;44.58;17.42;;;0.20;67.30;;;;;;4950729;28;20397;-63
2024/01/15 01:04:09;;;;;;;42.92;17.40;;;0.20;67.30;;;;;;4950146;28;20042;-62
2024/01/15 01:06:35;;;;;;;42.75;19.35;;;0.30;67.20;;;;;;4968941;28;20402;-61
2024/01/15 01:09:02;;;;;;;41.95;17.25;;;0.60;67.40;;;;;;4950061;28;20114;-61
2024/01/15 01:11:28;;;;;;;35.53;14.68;;;0.20;67.00;;;;;;4953908;28;20461;-61
2024/01/15 01:13:56;;;;;;;41.72;15.50;;;0.50;67.20;;;;;;4949238;28;20089;-62
2024/01/15 01:16:22;;;;;;;39.65;14.77;;;0.30;67.10;;;;;;4951540;28;20027;-62
2024/01/15 01:18:48;;;;;;;35.22;14.98;;;0.30;67.00;;;;;;4953270;28;20082;-61
2024/01/15 01:21:14;;;;;;;37.67;14.57;;;0.40;67.10;;;;;;4968436;28;20126;-61
2024/01/15 01:23:40;;;;;;;32.28;13.75;;;0.20;66.90;;;;;;4946087;28;20081;-62
2024/01/15 01:26:06;;;;;;;34.55;14.23;;;0.30;67.00;;;;;;4967386;28;20039;-62
2024/01/15 01:28:32;;;;;;;42.65;16.38;;;0.20;66.90;;;;;;4967859;28;20030;-61
2024/01/15 01:30:59;;;;;;;35.53;15.05;;;0.20;66.80;;;;;;4952962;28;20405;-63
2024/01/15 01:33:24;;;;;;;38.00;14.93;;;0.50;66.90;;;;;;4968407;28;20034;-62
2024/01/15 01:35:50;;;;;;;33.75;13.82;;;0.20;66.70;;;;;;4966749;28;20034;-62
2024/01/15 01:38:16;;;;;;;38.20;14.82;;;0.20;66.60;;;;;;4935546;28;20034;-63
2024/01/15 01:40:42;;;;;;;40.03;14.88;;;0.20;66.50;;;;;;4967929;28;20042;-63
2024/01/15 01:43:10;;;;;;;36.60;14.32;;;0.30;66.60;;;;;;4965864;28;20493;-61
2024/01/15 01:45:35;;;;;;;37.40;15.50;;;0.20;67.20;;;;;;4922610;28;20038;-61
2024/01/15 01:48:01;;;;;;;35.90;14.57;;;0.10;67.10;;;;;;4950959;28;20038;-61
2024/01/15 01:50:29;;;;;;;41.42;16.27;;;0.10;66.40;;;;;;4969688;28;20062;-63
2024/01/15 01:52:55;;;;;;;32.90;14.38;;;0.20;66.30;;;;;;4949096;28;20031;-62
2024/01/15 01:55:26;;;;;;;40.80;15.48;;;0.00;66.10;;;;;;4951019;28;20027;-62
2024/01/15 01:57:52;;;;;;;33.75;15.30;;;0.10;66.20;;;;;;4966491;28;20533;-62
2024/01/15 02:00:18;;;;;;;39.25;16.33;;;-0.10;66.30;;;;;;4948573;28;20046;-61
2024/01/15 02:02:45;;;;;;;36.08;15.07;;;0.00;66.40;;;;;;4967465;28;20417;-61
2024/01/15 02:05:13;;;;;;;35.55;15.25;;;-0.20;66.30;;;;;;4950193;28;20039;-62
2024/01/15 02:07:40;;;;;;;35.55;14.50;;;-0.20;66.40;;;;;;4948974;28;20030;-62
2024/01/15 02:10:07;;;;;;;37.00;15.00;;;-0.30;66.40;;;;;;4967535;28;20130;-62
2024/01/15 02:12:35;;;;;;;35.30;14.88;;;-0.30;66.40;;;;;;4948051;28;20046;-61
2024/01/15 02:15:00;;;;;;;35.83;14.95;;;-0.40;66.50;;;;;;4950274;28;20121;-61
2024/01/15 02:17:26;;;;;;;38.97;15.10;;;-0.40;66.50;;;;;;4965519;28;20502;-61
2024/01/15 02:19:52;;;;;;;31.70;13.65;;;-0.40;66.60;;;;;;4968657;28;20073;-62
2024/01/15 02:22:18;;;;;;;36.90;14.63;;;-0.30;66.70;;;;;;4965462;28;20105;-62
2024/01/15 02:24:44;;;;;;;32.28;14.02;;;-0.50;66.60;;;;;;4947755;28;20169;-60
2024/01/15 02:27:10;;;;;;;34.17;13.20;;;-0.50;66.50;;;;;;4968464;28;20086;-61
2024/01/15 02:29:36;;;;;;;35.78;12.80;;;-0.60;66.60;;;;;;4966785;28;20508;-61
2024/01/15 02:32:06;;;;;;;32.45;12.57;;;-0.60;66.60;;;;;;4967225;28;20081;-62
2024/01/15 02:34:32;;;;;;;25.60;11.18;;;-0.60;66.90;;;;;;4969999;28;20026;-62
2024/01/15 02:36:58;;;;;;;25.92;10.15;;;-0.60;67.00;;;;;;4969431;28;20031;-61
2024/01/15 02:39:25;;;;;;;24.20;10.13;;;-0.60;67.20;;;;;;4966408;28;20469;-61
2024/01/15 02:41:50;;;;;;;24.25;10.00;;;-0.60;67.70;;;;;;4965264;28;20062;-61
2024/01/15 02:44:16;;;;;;;20.27;8.65;;;-0.40;68.00;;;;;;4945375;28;20441;-62
2024/01/15 02:46:42;;;;;;;17.90;8.00;;;-0.60;68.10;;;;;;4952386;28;20379;-62
2024/01/15 02:49:08;;;;;;;20.70;8.57;;;-0.50;68.20;;;;;;4965384;28;20044;-64
2024/01/15 02:51:34;;;;;;;15.57;8.00;;;-0.50;68.20;;;;;;4964610;28;20109;-61
2024/01/15 02:54:00;;;;;;;15.80;8.27;;;-0.20;68.50;;;;;;4964778;28;20030;-61
2024/01/15 02:56:26;;;;;;;20.17;8.40;;;-0.10;68.60;;;;;;4965779;28;20498;-62
2024/01/15 02:58:52;;;;;;;18.05;7.70;;;-0.20;68.50;;;;;;4970071;28;20081;-63
2024/01/15 03:01:21;;;;;;;15.27;6.95;;;-0.10;68.60;;;;;;4946411;28;20034;-63
2024/01/15 03:03:47;;;;;;;20.65;8.63;;;-0.20;68.40;;;;;;4967930;28;20037;-63
2024/01/15 03:06:13;;;;;;;14.48;7.63;;;-0.10;68.60;;;;;;4967685;28;20034;-62
2024/01/15 03:08:39;;;;;;;15.85;7.28;;;-0.10;68.70;;;;;;4966221;28;20375;-61
2024/01/15 03:11:05;;;;;;;17.73;8.65;;;0.00;68.70;;;;;;4965637;28;20062;-62
2024/01/15 03:13:30;;;;;;;15.80;7.45;;;0.00;68.70;;;;;;4966609;28;20027;-62
2024/01/15 03:15:56;;;;;;;15.38;6.97;;;0.10;68.60;;;;;;4970419;28;20039;-61
2024/01/15 03:18:22;;;;;;;15.45;6.82;;;0.20;68.50;;;;;;4967759;28;20431;-61
2024/01/15 03:20:48;;;;;;;21.52;7.53;;;0.20;68.40;;;;;;4966221;28;20121;-61
2024/01/15 03:23:14;;;;;;;20.60;8.18;;;0.30;68.40;;;;;;4971572;28;20109;-61
2024/01/15 03:25:40;;;;;;;16.38;7.75;;;0.30;68.30;;;;;;4968037;28;20109;-60
2024/01/15 03:28:06;;;;;;;19.45;8.18;;;0.40;68.40;;;;;;4951709;28;20577;-61
2024/01/15 03:30:32;;;;;;;18.95;9.20;;;0.40;68.20;;;;;;4964142;28;20232;-63
2024/01/15 03:32:58;;;;;;;21.08;8.32;;;0.50;68.20;;;;;;4965631;28;20030;-61
2024/01/15 03:35:29;;;;;;;19.42;8.85;;;0.50;68.00;;;;;;4967567;28;20109;-61
2024/01/15 03:37:54;;;;;;;18.40;8.40;;;0.60;68.00;;;;;;4966524;28;20031;-62
2024/01/15 03:40:20;;;;;;;18.23;8.30;;;0.60;67.90;;;;;;4966976;28;20042;-62
2024/01/15 03:42:46;;;;;;;16.27;7.70;;;0.90;68.10;;;;;;4966168;28;20054;-62
2024/01/15 03:45:13;;;;;;;18.25;8.25;;;0.70;67.90;;;;;;4917598;28;20393;-61
2024/01/15 03:47:39;;;;;;;17.92;8.05;;;0.70;67.80;;;;;;4965463;28;20054;-63
2024/01/15 03:50:06;;;;;;;19.33;8.75;;;0.70;67.80;;;;;;4975778;28;20085;-62
2024/01/15 03:52:31;;;;;;;14.60;7.20;;;0.70;67.90;;;;;;4968325;28;20033;-62
2024/01/15 03:54:57;;;;;;;17.40;7.88;;;0.80;67.90;;;;;;4949895;28;20035;-61
2024/01/15 03:57:23;;;;;;;17.27;8.13;;;0.80;67.80;;;;;;4963665;28;20030;-61
2024/01/15 03:59:49;;;;;;;17.08;7.22;;;0.80;67.60;;;;;;4968989;28;20033;-62
2024/01/15 04:02:14;;;;;;;15.30;7.57;;;0.90;67.70;;;;;;4965830;28;20035;-63
2024/01/15 04:04:43;;;;;;;17.67;7.97;;;0.90;67.60;;;;;;4965294;28;20045;-64
2024/01/15 04:07:09;;;;;;;16.50;7.25;;;0.90;67.60;;;;;;4964644;28;20485;-62
2024/01/15 04:09:35;;;;;;;19.90;7.88;;;0.90;67.50;;;;;;4965595;28;20061;-62
2024/01/15 04:12:01;;;;;;;18.45;8.73;;;0.90;67.50;;;;;;4963770;28;20047;-64
2024/01/15 04:14:26;;;;;;;14.52;7.55;;;1.00;67.60;;;;;;4944917;28;20030;-61
2024/01/15 04:16:53;;;;;;;12.75;6.88;;;1.00;67.60;;;;;;4963345;28;20027;-61
2024/01/15 04:19:18;;;;;;;17.83;8.05;;;1.00;67.50;;;;;;4969025;28;20030;-61
2024/01/15 04:21:44;;;;;;;15.15;8.02;;;1.00;67.50;;;;;;4969089;28;20118;-61
2024/01/15 04:24:10;;;;;;;22.00;9.63;;;1.00;67.50;;;;;;4969294;28;20043;-62
2024/01/15 04:26:35;;;;;;;16.40;7.30;;;1.10;67.60;;;;;;4970115;28;20042;-62
2024/01/15 04:29:01;;;;;;;16.00;8.18;;;1.10;67.50;;;;;;4970546;28;20044;-61
2024/01/15 04:31:27;;;;;;;15.63;7.57;;;1.10;67.50;;;;;;4967394;28;20030;-61
2024/01/15 04:33:52;;;;;;;17.50;8.15;;;1.10;67.50;;;;;;4968490;28;20342;-62
2024/01/15 04:36:18;;;;;;;16.83;7.45;;;1.10;67.50;;;;;;4968651;28;20033;-61
2024/01/15 04:38:44;;;;;;;18.98;7.95;;;1.30;67.60;;;;;;4969413;28;20114;-62
2024/01/15 04:41:12;;;;;;;17.92;8.35;;;1.20;67.60;;;;;;4970094;28;20397;-61
2024/01/15 04:43:38;;;;;;;13.75;7.43;;;1.20;67.50;;;;;;4968782;28;20101;-62
2024/01/15 04:46:07;;;;;;;14.77;7.47;;;1.20;67.50;;;;;;4894659;28;20126;-61
2024/01/15 04:48:33;;;;;;;12.93;6.72;;;1.20;67.40;;;;;;4970654;28;20034;-61
2024/01/15 04:50:59;;;;;;;16.85;6.85;;;1.20;67.50;;;;;;4967809;28;20042;-61
2024/01/15 04:53:26;;;;;;;16.83;7.25;;;1.20;67.40;;;;;;4969969;28;20046;-62
2024/01/15 04:55:52;;;;;;;18.77;8.40;;;1.20;67.50;;;;;;4951193;28;20026;-63
2024/01/15 04:58:19;;;;;;;17.30;7.90;;;1.20;67.50;;;;;;4971102;28;20077;-62
2024/01/15 05:00:44;;;;;;;21.00;9.52;;;1.30;67.60;;;;;;4972864;28;20041;-62
2024/01/15 05:03:11;;;;;;;17.27;8.32;;;1.30;67.60;;;;;;4971800;28;20027;-62
2024/01/15 05:05:37;;;;;;;18.73;8.05;;;1.30;67.50;;;;;;4969305;28;20401;-62
2024/01/15 05:08:02;;;;;;;15.98;7.97;;;1.30;67.50;;;;;;4967223;28;20030;-62
2024/01/15 05:10:28;;;;;;;14.98;8.00;;;1.30;67.50;;;;;;4965236;28;20149;-62
2024/01/15 05:12:54;;;;;;;15.57;7.90;;;1.50;67.60;;;;;;4968691;28;20580;-61
2024/01/15 05:15:19;;;;;;;17.13;8.10;;;1.30;67.50;;;;;;4968310;28;20408;-62
2024/01/15 05:17:45;;;;;;;15.93;7.35;;;1.30;67.50;;;;;;4950857;28;20076;-62
2024/01/15 05:20:11;;;;;;;13.63;7.10;;;1.40;67.60;;;;;;4968261;28;20102;-62
2024/01/15 05:22:36;;;;;;;12.52;6.50;;;1.40;67.60;;;;;;4971340;28;20053;-61
2024/01/15 05:25:03;;;;;;;16.38;6.50;;;1.40;67.50;;;;;;4967043;28;20038;-62
2024/01/15 05:27:29;;;;;;;14.23;6.72;;;1.40;67.50;;;;;;4936224;28;20038;-61
2024/01/15 05:29:54;;;;;;;13.00;6.57;;;1.40;67.60;;;;;;4968132;28;20577;-61
2024/01/15 05:32:20;;;;;;;14.50;7.00;;;1.40;67.60;;;;;;4966468;28;20746;-61
2024/01/15 05:34:46;;;;;;;15.27;6.80;;;1.40;67.60;;;;;;4969971;28;20224;-62
2024/01/15 05:37:12;;;;;;;11.85;6.25;;;1.40;67.60;;;;;;4967267;28;20029;-62
2024/01/15 05:39:38;;;;;;;33.92;14.98;;;1.60;67.70;;;;;;4967954;28;20110;-61
2024/01/15 05:42:04;;;;;;;20.00;9.98;;;1.40;67.50;;;;;;4966451;28;20482;-61
2024/01/15 05:44:29;;;;;;;25.20;12.35;;;1.40;67.50;;;;;;4966210;28;20037;-61
2024/01/15 05:46:55;;;;;;;21.35;10.38;;;1.40;67.40;;;;;;4899656;28;20500;-62
2024/01/15 05:49:21;;;;;;;27.00;11.50;;;1.40;67.50;;;;;;4966531;28;20121;-61
2024/01/15 05:51:46;;;;;;;21.98;11.05;;;1.50;67.50;;;;;;4953562;28;20072;-60
2024/01/15 05:54:12;;;;;;;17.42;8.57;;;1.60;67.50;;;;;;4968379;28;20469;-61
2024/01/15 05:56:38;;;;;;;11.57;6.18;;;1.80;67.60;;;;;;4950396;28;20398;-61
2024/01/15 05:59:04;;;;;;;12.07;5.63;;;1.50;67.30;;;;;;4971210;28;20065;-61
2024/01/15 06:01:31;;;;;;;8.95;4.75;;;1.50;67.20;;;;;;4933439;28;20030;-62
2024/01/15 06:03:57;;;;;;;12.45;5.53;;;1.50;67.20;;;;;;4950003;28;20551;-60
2024/01/15 06:06:23;;;;;;;9.10;4.88;;;1.50;67.00;;;;;;4968775;28;20046;-61
2024/01/15 06:08:49;;;;;;;10.60;5.35;;;1.60;67.00;;;;;;4947864;28;20062;-60
2024/01/15 06:11:15;;;;;;;10.18;5.13;;;1.60;66.90;;;;;;4966646;28;20045;-61
2024/01/15 06:13:41;;;;;;;13.07;5.35;;;1.60;66.80;;;;;;4965903;28;20026;-61
2024/01/15 06:16:16;;;;;;;9.95;4.82;;;1.70;66.90;;;;;;4966085;28;20478;-61
2024/01/15 06:18:42;;;;;;;12.35;6.00;;;1.70;66.70;;;;;;4967742;28;20030;-61
2024/01/15 06:21:10;;;;;;;11.57;5.35;;;1.70;66.60;;;;;;4966747;28;20042;-62
2024/01/15 06:23:37;;;;;;;9.65;5.05;;;1.70;66.70;;;;;;4966235;28;20069;-61
2024/01/15 06:26:03;;;;;;;9.98;5.45;;;1.80;66.60;;;;;;4970970;28;20035;-62
2024/01/15 06:28:29;;;;;;;11.77;5.72;;;1.80;66.60;;;;;;4953566;28;20031;-61
2024/01/15 06:30:55;;;;;;;10.55;5.18;;;1.90;66.50;;;;;;4967136;28;20077;-62
2024/01/15 06:33:21;;;;;;;9.90;4.70;;;1.80;66.40;;;;;;4967588;28;20063;-62
2024/01/15 06:35:47;;;;;;;12.18;5.47;;;1.90;66.40;;;;;;4947978;28;20062;-63
2024/01/15 06:38:13;;;;;;;12.23;6.03;;;1.90;66.40;;;;;;4967308;28;20376;-60
2024/01/15 06:40:41;;;;;;;12.93;5.90;;;1.90;66.30;;;;;;4968379;28;20026;-61
2024/01/15 06:43:07;;;;;;;15.55;6.22;;;1.90;66.30;;;;;;4974011;28;20041;-61
2024/01/15 06:45:33;;;;;;;13.05;5.85;;;1.90;66.20;;;;;;4935840;28;20035;-61
2024/01/15 06:47:59;;;;;;;18.77;8.77;;;2.00;66.30;;;;;;4964925;28;20502;-60
2024/01/15 06:50:25;;;;;;;18.83;8.93;;;2.00;66.20;;;;;;4950400;28;20026;-60
2024/01/15 06:52:50;;;;;;;16.15;8.82;;;2.00;66.20;;;;;;4964988;28;20558;-61
2024/01/15 06:55:16;;;;;;;14.32;7.00;;;2.00;66.10;;;;;;4970480;28;20060;-61
2024/01/15 06:57:42;;;;;;;12.43;6.60;;;2.00;66.00;;;;;;4966373;28;20035;-62
2024/01/15 07:00:09;;;;;;;27.88;11.55;;;2.00;66.00;;;;;;4948788;28;20030;-62
2024/01/15 07:02:35;;;;;;;28.15;12.20;;;2.00;65.90;;;;;;4965611;28;20105;-62
2024/01/15 07:05:01;;;;;;;26.30;10.73;;;2.10;65.90;;;;;;4966262;28;20061;-63
2024/01/15 07:07:29;;;;;;;32.80;12.07;;;2.10;65.90;;;;;;4962404;28;20039;-62
2024/01/15 07:09:55;;;;;;;23.80;9.38;;;2.20;66.00;;;;;;4964315;28;20054;-63
2024/01/15 07:12:21;;;;;;;22.23;8.63;;;2.10;65.90;;;;;;4967058;28;20093;-63
2024/01/15 07:14:47;;;;;;;20.60;8.45;;;2.10;65.90;;;;;;4964029;28;20031;-61
2024/01/15 07:17:13;;;;;;;21.65;8.82;;;2.10;66.00;;;;;;4964421;28;20569;-62
2024/01/15 07:19:39;;;;;;;19.38;9.60;;;2.10;65.90;;;;;;4966068;28;20109;-62
2024/01/15 07:22:05;;;;;;;15.02;7.47;;;2.10;65.90;;;;;;4963790;28;20125;-63
2024/01/15 07:24:31;;;;;;;15.30;7.20;;;2.10;65.90;;;;;;4965691;28;20094;-63
2024/01/15 07:26:57;;;;;;;14.18;6.55;;;2.10;65.80;;;;;;4966229;28;20181;-62
2024/01/15 07:29:23;;;;;;;15.18;6.43;;;2.20;65.80;;;;;;4965721;28;20553;-64
2024/01/15 07:31:52;;;;;;;10.82;5.72;;;2.20;65.80;;;;;;4966844;28;20084;-63
2024/01/15 07:34:18;;;;;;;10.48;5.20;;;2.40;65.90;;;;;;4966504;28;20027;-63
2024/01/15 07:36:45;;;;;;;9.93;4.88;;;2.20;65.60;;;;;;4969123;28;20069;-63
2024/01/15 07:39:11;;;;;;;8.65;4.50;;;2.20;65.60;;;;;;4965285;28;20066;-63
2024/01/15 07:41:37;;;;;;;8.85;4.68;;;2.20;65.60;;;;;;4964519;28;20176;-62
2024/01/15 07:44:03;;;;;;;9.50;4.95;;;2.20;65.60;;;;;;4944427;28;20030;-62
2024/01/15 07:46:29;;;;;;;11.98;5.50;;;2.30;65.60;;;;;;4900147;28;20022;-64
2024/01/15 07:48:57;;;;;;;10.05;4.53;;;2.20;65.40;;;;;;4967487;28;20373;-63
2024/01/15 07:51:24;;;;;;;10.45;5.10;;;2.30;65.40;;;;;;4967855;28;20117;-63
2024/01/15 07:53:50;;;;;;;9.48;4.97;;;2.30;65.40;;;;;;4965816;28;20058;-63
2024/01/15 07:56:16;;;;;;;13.15;6.20;;;2.30;65.40;;;;;;4969045;28;20049;-62
2024/01/15 07:58:42;;;;;;;16.15;7.85;;;2.30;65.40;;;;;;4966046;28;20038;-63
2024/01/15 08:01:08;;;;;;;12.52;6.53;;;2.30;65.40;;;;;;4965147;28;20030;-64
2024/01/15 08:03:33;;;;;;;14.27;6.40;;;2.30;65.40;;;;;;4965909;28;20109;-62
2024/01/15 08:05:59;;;;;;;14.57;6.78;;;2.30;65.40;;;;;;4965507;28;20034;-64
2024/01/15 08:08:28;;;;;;;12.68;5.95;;;2.30;65.40;;;;;;4966163;28;20551;-62
2024/01/15 08:10:55;;;;;;;13.15;6.95;;;2.30;65.30;;;;;;4953176;28;20062;-62
2024/01/15 08:13:21;;;;;;;16.83;7.80;;;2.30;65.40;;;;;;4963749;28;20035;-63
2024/01/15 08:15:47;;;;;;;15.52;6.78;;;2.30;65.30;;;;;;4964658;28;20031;-63
2024/01/15 08:18:13;;;;;;;13.95;6.25;;;2.30;65.30;;;;;;4964976;28;20038;-62
2024/01/15 08:20:39;;;;;;;12.57;5.80;;;2.50;65.50;;;;;;4967200;28;20433;-63
2024/01/15 08:23:05;;;;;;;9.07;4.60;;;2.40;65.40;;;;;;4961520;28;20077;-63
2024/01/15 08:25:31;;;;;;;11.55;5.00;;;2.40;65.40;;;;;;4959073;28;20517;-63
2024/01/15 08:27:57;;;;;;;10.10;5.45;;;2.50;65.40;;;;;;4947820;28;20031;-63
2024/01/15 08:30:27;;;;;;;11.70;5.65;;;2.50;65.40;;;;;;4948253;28;20086;-61
2024/01/15 08:32:56;;;;;;;24.08;10.50;;;2.60;65.40;;;;;;4965599;28;20033;-62
2024/01/15 08:35:22;;;;;;;17.95;6.90;;;2.60;65.40;;;;;;4950895;28;20439;-63
2024/01/15 08:37:51;;;;;;;13.15;6.47;;;2.70;65.30;;;;;;4962555;28;20023;-63
2024/01/15 08:40:17;;;;;;;9.52;5.35;;;2.80;65.20;;;;;;4969107;28;20030;-64
2024/01/15 08:42:44;;;;;;;9.20;4.80;;;2.80;65.20;;;;;;4967007;28;20035;-62
2024/01/15 08:45:10;;;;;;;8.68;4.80;;;2.90;65.10;;;;;;4953285;28;20034;-63
2024/01/15 08:47:37;;;;;;;12.25;7.18;;;2.90;65.10;;;;;;4966857;28;20497;-62
2024/01/15 08:50:04;;;;;;;17.90;7.13;;;3.00;64.90;;;;;;4967508;28;20067;-62
2024/01/15 08:52:29;;;;;;;15.30;7.68;;;3.10;65.00;;;;;;4945170;28;20027;-63
2024/01/15 08:54:58;;;;;;;56.33;21.90;;;3.10;65.00;;;;;;4962529;28;20023;-64
2024/01/15 08:57:25;;;;;;;14.98;8.63;;;3.20;64.90;;;;;;4967153;28;20031;-62
2024/01/15 08:59:51;;;;;;;12.40;6.97;;;3.20;64.80;;;;;;4963582;28;20713;-62
2024/01/15 09:02:17;;;;;;;15.68;7.45;;;3.30;64.50;;;;;;4960126;28;20078;-63
2024/01/15 09:04:42;;;;;;;11.73;5.70;;;3.30;64.20;;;;;;4962299;28;20027;-63
2024/01/15 09:07:08;;;;;;;11.63;4.90;;;3.40;64.30;;;;;;4961169;28;20054;-63
2024/01/15 09:09:34;;;;;;;13.32;5.05;;;3.50;64.20;;;;;;4949340;28;20053;-65
2024/01/15 09:12:01;;;;;;;15.73;5.45;;;3.50;64.00;;;;;;4968650;28;20038;-62
2024/01/15 09:14:28;;;;;;;12.27;4.90;;;3.50;64.00;;;;;;4969097;28;20114;-62
2024/01/15 09:16:56;;;;;;;6.90;4.05;;;3.60;63.70;;;;;;4970137;28;20490;-64
2024/01/15 09:19:22;;;;;;;11.38;5.03;;;3.60;63.60;;;;;;4969314;28;20149;-64
2024/01/15 09:21:48;;;;;;;10.27;5.75;;;3.70;63.50;;;;;;4969942;28;20109;-61
2024/01/15 09:24:13;;;;;;;6.80;4.00;;;3.70;63.30;;;;;;4950115;28;20058;-64
2024/01/15 09:26:40;;;;;;;11.57;5.10;;;3.70;63.20;;;;;;4953337;28;20034;-62
2024/01/15 09:29:06;;;;;;;11.48;4.22;;;3.80;62.90;;;;;;4970912;28;20049;-64
2024/01/15 09:31:31;;;;;;;7.38;3.75;;;3.80;63.00;;;;;;4948600;28;20030;-62
2024/01/15 09:34:00;;;;;;;9.88;4.13;;;3.80;62.70;;;;;;4970392;28;20077;-63
2024/01/15 09:36:25;;;;;;;9.43;4.32;;;3.80;62.70;;;;;;4970519;28;20410;-63
2024/01/15 09:38:51;;;;;;;22.30;4.03;;;3.80;62.30;;;;;;4964438;28;20026;-63
2024/01/15 09:41:17;;;;;;;8.80;3.60;;;3.80;62.30;;;;;;4933773;28;20035;-63
2024/01/15 09:43:43;;;;;;;10.88;3.92;;;3.90;62.40;;;;;;4969531;28;20473;-62
2024/01/15 09:46:09;;;;;;;6.80;3.90;;;3.90;62.60;;;;;;4966441;28;20080;-63
2024/01/15 09:48:35;;;;;;;8.90;3.85;;;3.90;62.20;;;;;;4969147;28;20545;-63
2024/01/15 09:51:02;;;;;;;8.95;3.92;;;3.90;62.50;;;;;;4968270;28;20102;-63
2024/01/15 09:53:28;;;;;;;8.70;3.78;;;3.90;62.20;;;;;;4970773;28;20417;-64
2024/01/15 09:55:53;;;;;;;9.23;3.75;;;3.90;62.20;;;;;;4966810;28;20066;-62
2024/01/15 09:58:20;;;;;;;6.45;3.65;;;4.00;62.10;;;;;;4967808;28;20513;-62
2024/01/15 10:00:49;;;;;;;5.43;3.25;;;4.00;62.00;;;;;;4966031;28;20034;-64
2024/01/15 10:03:15;;;;;;;6.18;3.25;;;4.00;61.80;;;;;;4972198;28;20517;-63
2024/01/15 10:05:42;;;;;;;7.30;3.85;;;4.00;61.40;;;;;;4963006;28;20027;-61
2024/01/15 10:08:08;;;;;;;9.63;3.70;;;4.00;61.70;;;;;;4967715;28;20030;-64
2024/01/15 10:10:36;;;;;;;7.07;3.80;;;4.00;61.70;;;;;;4965559;28;20039;-62
2024/01/15 10:13:04;;;;;;;8.13;3.75;;;4.00;61.70;;;;;;4968255;28;20114;-63
2024/01/15 10:15:29;;;;;;;10.27;3.80;;;4.10;61.80;;;;;;4965116;28;20023;-62
2024/01/15 10:17:55;;;;;;;10.43;3.58;;;4.00;61.70;;;;;;4966357;28;20101;-63
2024/01/15 10:20:24;;;;;;;7.35;3.70;;;4.10;61.50;;;;;;4970707;28;20027;-63
2024/01/15 10:22:50;;;;;;;6.35;3.60;;;4.10;61.40;;;;;;4947546;28;20042;-63
2024/01/15 10:25:22;;;;;;;7.95;3.50;;;4.10;61.40;;;;;;4967634;28;20122;-62
2024/01/15 10:28:02;;;;;;;16.08;4.57;;;4.10;61.20;;;;;;4970046;28;20030;-63
2024/01/15 10:30:29;;;;;;;8.60;4.05;;;4.20;60.90;;;;;;4952175;28;20038;-62
2024/01/15 10:32:59;;;;;;;8.02;3.63;;;4.20;61.00;;;;;;4970026;28;20513;-64
2024/01/15 10:35:28;;;;;;;14.20;3.50;;;4.20;60.70;;;;;;4930639;28;20027;-63
2024/01/15 10:37:53;;;;;;;7.38;3.55;;;4.20;60.70;;;;;;4966611;28;20669;-63
2024/01/15 10:40:19;;;;;;;14.77;4.15;;;4.20;60.70;;;;;;4967736;28;20053;-63
2024/01/15 10:42:46;;;;;;;6.65;2.92;;;4.20;60.70;;;;;;4964505;28;20109;-63
2024/01/15 10:45:12;;;;;;;6.35;3.15;;;4.20;60.50;;;;;;4969884;28;20038;-61
2024/01/15 10:47:43;;;;;;;7.63;2.90;;;4.30;60.40;;;;;;4964028;28;20038;-62
2024/01/15 10:50:09;;;;;;;5.18;2.92;;;4.30;60.70;;;;;;4969414;28;20129;-63
2024/01/15 10:52:40;;;;;;;9.18;3.15;;;4.30;60.40;;;;;;4969630;28;20031;-64
2024/01/15 10:55:09;;;;;;;6.43;2.70;;;4.30;60.20;;;;;;4971095;28;20054;-63
2024/01/15 10:57:37;;;;;;;5.55;3.15;;;4.30;60.10;;;;;;4969875;28;20029;-62
2024/01/15 11:00:06;;;;;;;7.25;2.47;;;4.30;60.40;;;;;;4967562;28;20031;-63
2024/01/15 11:02:37;;;;;;;6.72;2.78;;;4.40;60.30;;;;;;4964963;28;20093;-62
2024/01/15 11:05:03;;;;;;;4.00;2.70;;;4.40;60.10;;;;;;4969553;28;20537;-63
2024/01/15 11:07:31;;;;;;;3.80;2.30;;;4.40;60.10;;;;;;4967488;28;20041;-63
2024/01/15 11:09:59;;;;;;;4.88;2.20;;;4.40;59.90;;;;;;4949156;28;20082;-64
2024/01/15 11:12:25;;;;;;;2.40;1.90;;;4.40;59.80;;;;;;4952636;28;20039;-62
2024/01/15 11:14:51;;;;;;;2.63;1.90;;;4.40;59.50;;;;;;4966700;28;20030;-63
2024/01/15 11:17:18;;;;;;;3.63;2.00;;;4.40;59.30;;;;;;4965281;28;20063;-64
2024/01/15 11:19:45;;;;;;;4.93;2.17;;;4.40;59.30;;;;;;4965922;28;20042;-63
2024/01/15 11:22:31;;;;;;;3.97;1.70;;;4.40;59.30;;;;;;4971107;28;20034;-64
2024/01/15 11:25:01;;;;;;;4.00;1.98;;;4.40;59.20;;;;;;4966597;28;20043;-64
2024/01/15 11:27:47;;;;;;;4.20;1.77;;;4.40;59.40;;;;;;4965489;28;20034;-64
2024/01/15 11:30:13;;;;;;;3.15;2.15;;;4.40;58.90;;;;;;4972267;28;20077;-63
2024/01/15 11:32:42;;;;;;;3.38;1.70;;;4.40;59.40;;;;;;4967117;28;20464;-62
2024/01/15 11:35:13;;;;;;;5.68;1.92;;;4.40;59.30;;;;;;4951051;28;20468;-62
2024/01/15 11:37:51;;;;;;;3.22;1.77;;;4.40;59.20;;;;;;4964436;28;20030;-63
2024/01/15 11:40:32;;;;;;;3.30;1.95;;;4.40;58.80;;;;;;4967517;28;20101;-62
2024/01/15 11:42:59;;;;;;;5.22;2.03;;;4.40;59.00;;;;;;4949337;28;20046;-63
2024/01/15 11:45:26;;;;;;;2.28;1.80;;;4.40;59.40;;;;;;4935186;28;20467;-62
2024/01/15 11:48:07;;;;;;;5.28;1.98;;;4.40;59.30;;;;;;4949017;28;20125;-63
2024/01/15 11:50:34;;;;;;;4.13;2.20;;;4.40;59.10;;;;;;4961893;28;20083;-63
2024/01/15 11:53:01;;;;;;;4.70;2.50;;;4.40;59.00;;;;;;4946420;28;20346;-62
2024/01/15 11:55:37;;;;;;;3.22;2.00;;;4.40;59.20;;;;;;4949605;28;20505;-64
2024/01/15 11:58:07;;;;;;;4.25;2.60;;;4.40;59.10;;;;;;4964798;28;20030;-63
2024/01/15 12:00:33;;;;;;;2.90;2.03;;;4.30;59.20;;;;;;4965147;28;20401;-63
2024/01/15 12:03:01;;;;;;;6.15;2.00;;;4.30;59.30;;;;;;4964819;28;20035;-62
2024/01/15 12:05:27;;;;;;;5.53;2.67;;;4.30;59.50;;;;;;4966238;28;20065;-63
2024/01/15 12:07:55;;;;;;;3.35;2.17;;;4.20;59.50;;;;;;4966243;28;20544;-62
2024/01/15 12:10:21;;;;;;;7.68;2.78;;;4.20;59.90;;;;;;4946719;28;20390;-63
2024/01/15 12:13:10;;;;;;;3.70;1.95;;;4.20;60.10;;;;;;4945895;28;20049;-63
2024/01/15 12:15:36;;;;;;;4.13;2.20;;;4.10;60.50;;;;;;4962349;28;20038;-65
2024/01/15 12:18:03;;;;;;;3.08;2.15;;;4.10;60.70;;;;;;4964515;28;20031;-63
2024/01/15 12:20:30;;;;;;;3.17;1.75;;;4.00;61.30;;;;;;4963110;28;20050;-64
2024/01/15 12:22:56;;;;;;;4.63;2.35;;;3.90;62.10;;;;;;4959336;28;20022;-62
2024/01/15 12:25:23;;;;;;;3.67;2.28;;;3.80;61.50;;;;;;4965221;28;20039;-63
2024/01/15 12:27:50;;;;;;;4.47;2.80;;;3.80;62.70;;;;;;4965046;28;20085;-63
2024/01/15 12:30:16;;;;;;;5.70;3.08;;;3.70;62.70;;;;;;4945741;28;20404;-63
2024/01/15 12:32:43;;;;;;;4.97;2.80;;;3.60;63.90;;;;;;4948568;28;20031;-64
2024/01/15 12:35:12;;;;;;;4.07;2.60;;;3.50;63.50;;;;;;4964072;28;20091;-63
2024/01/15 12:37:40;;;;;;;6.18;2.75;;;3.50;63.90;;;;;;4948857;28;20034;-62
2024/01/15 12:40:10;;;;;;;5.18;2.70;;;3.50;63.80;;;;;;4969379;28;20027;-62
2024/01/15 12:42:45;;;;;;;4.55;2.55;;;3.50;64.20;;;;;;4967486;28;20126;-63